Time;durP1;ratioP1;P1;durP2;ratioP2;P2;SDS_P1;SDS_P2;PMS_P1;PMS_P2;Temp;Humidity;BMP_temperature;BMP_pressure;BME280_temperature;BME280_humidity;BME280_pressure;Samples;Min_cycle;Max_cycle;Signal;HPM_P1;HPM_P2
2022/01/30 00:01:45;;;;;;;;;9.25;8.75;;;;;12.41;68.06;103089.03;5100907;27;45445;-90
2022/01/30 00:04:10;;;;;;;;;7.00;7.00;;;;;12.41;67.80;103096.97;5098135;27;45280;-89
2022/01/30 00:06:36;;;;;;;;;4.00;4.00;;;;;12.40;67.92;103082.88;5100118;27;45283;-89
2022/01/30 00:09:02;;;;;;;;;5.75;5.25;;;;;12.37;67.96;103073.22;5097983;27;45368;-91
2022/01/30 00:11:32;;;;;;;;;7.75;4.75;;;;;12.34;68.07;103062.69;5100769;27;45328;-92
2022/01/30 00:13:59;;;;;;;;;5.75;5.75;;;;;12.34;67.87;103072.38;5099508;27;45507;-92
2022/01/30 00:16:29;;;;;;;;;1.00;1.00;;;;;12.31;67.82;103075.88;5092019;27;45358;-92
2022/01/30 00:19:11;;;;;;;;;13.50;11.50;;;;;12.32;67.74;103075.00;5089510;27;45466;-92
2022/01/30 00:21:41;;;;;;;;;14.50;13.00;;;;;12.33;67.83;103074.13;5097763;27;46250;-92
2022/01/30 00:24:13;;;;;;;;;14.25;14.25;;;;;12.35;68.23;103079.38;5093381;27;45689;-91
2022/01/30 00:26:40;;;;;;;;;16.50;13.25;;;;;12.33;67.98;103068.84;5085144;27;45263;-92
2022/01/30 00:29:06;;;;;;;;;13.75;13.00;;;;;12.33;67.74;103082.03;5094950;27;45982;-91
2022/01/30 00:31:33;;;;;;;;;10.00;10.00;;;;;12.34;67.92;103082.91;5128425;27;47922;-92
2022/01/30 00:33:59;;;;;;;;;18.25;18.00;;;;;12.33;67.90;103074.13;5089354;27;45275;-91
2022/01/30 00:36:25;;;;;;;;;57.50;44.50;;;;;12.36;68.00;103067.97;5091270;27;45252;-91
2022/01/30 00:38:51;;;;;;;;;47.25;37.00;;;;;12.35;68.02;103059.16;5094244;27;45422;-92
2022/01/30 00:41:16;;;;;;;;;22.50;19.00;;;;;12.35;67.87;103055.66;5101078;27;45240;-91
2022/01/30 00:43:42;;;;;;;;;6.75;6.75;;;;;12.33;67.97;103060.94;5095951;27;45153;-93
2022/01/30 00:46:07;;;;;;;;;18.75;18.50;;;;;12.32;68.28;103056.53;5110356;27;46049;-91
2022/01/30 00:48:33;;;;;;;;;9.00;8.00;;;;;12.31;68.11;103054.78;5099390;27;46524;-93
2022/01/30 00:50:58;;;;;;;;;6.50;6.00;;;;;12.30;68.32;103054.81;5096458;27;45219;-91
2022/01/30 00:53:23;;;;;;;;;6.25;5.75;;;;;12.27;68.08;103051.28;5099658;27;45524;-88
2022/01/30 00:55:49;;;;;;;;;6.25;5.75;;;;;12.27;68.18;103045.16;5085653;27;45329;-88
2022/01/30 00:58:14;;;;;;;;;6.50;6.00;;;;;12.26;68.29;103048.66;5092882;27;45202;-88
2022/01/30 01:00:40;;;;;;;;;6.50;6.00;;;;;12.27;68.49;103047.78;5099740;27;46692;-88
2022/01/30 01:03:06;;;;;;;;;7.75;7.00;;;;;12.21;68.13;103040.75;5099190;27;45374;-88
2022/01/30 01:05:34;;;;;;;;;6.00;5.75;;;;;12.23;68.41;103036.34;5086522;27;45314;-87
2022/01/30 01:08:07;;;;;;;;;7.00;7.00;;;;;12.25;67.87;103033.69;5097768;27;45464;-87
2022/01/30 01:23:44;;;;;;;;;5.25;4.00;;;;;12.04;68.00;103032.84;5094693;27;45814;-89
2022/01/30 01:26:10;;;;;;;;;7.25;7.00;;;;;12.02;68.26;103024.09;5090970;27;45561;-89
2022/01/30 01:28:36;;;;;;;;;8.75;7.50;;;;;11.98;68.27;103015.28;5096221;27;46172;-91
2022/01/30 01:31:02;;;;;;;;;7.00;5.50;;;;;11.98;68.25;103019.69;5099309;27;45614;-91
2022/01/30 01:33:38;;;;;;;;;6.50;6.50;;;;;11.93;68.03;103025.84;5097447;27;45331;-92
2022/01/30 01:36:04;;;;;;;;;5.00;4.50;;;;;11.89;68.26;103020.59;5087458;27;45376;-85
2022/01/30 01:38:30;;;;;;;;;5.50;5.50;;;;;11.86;68.28;103029.38;5099108;27;45490;-84
2022/01/30 01:40:55;;;;;;;;;7.75;6.00;;;;;11.86;68.18;103024.09;5099477;27;45250;-92
2022/01/30 01:43:24;;;;;;;;;8.00;4.75;;;;;11.85;68.43;103030.28;5102815;27;45976;-90
2022/01/30 01:45:51;;;;;;;;;5.50;5.50;;;;;11.81;68.21;103020.59;5089498;27;46056;-89
2022/01/30 01:48:17;;;;;;;;;8.75;7.75;;;;;11.78;68.12;103018.84;5087448;27;45432;-91
2022/01/30 01:50:51;;;;;;;;;7.50;7.00;;;;;11.78;68.32;103023.22;5085827;27;46464;-89
2022/01/30 01:53:20;;;;;;;;;11.00;6.25;;;;;11.77;68.55;103018.84;5102640;27;45807;-87
2022/01/30 01:55:46;;;;;;;;;11.00;9.00;;;;;11.77;68.49;103025.00;5093984;27;45350;-87
2022/01/30 01:58:11;;;;;;;;;7.00;6.25;;;;;11.68;68.90;103027.66;5102104;27;45220;-87
2022/01/30 02:00:37;;;;;;;;;8.00;8.00;;;;;11.67;68.92;103018.88;5101658;27;46658;-88
2022/01/30 02:03:04;;;;;;;;;9.00;8.00;;;;;11.68;68.82;103014.47;5097036;27;45259;-87
2022/01/30 02:05:32;;;;;;;;;8.75;8.75;;;;;11.66;68.80;103019.72;5084206;27;45242;-88
2022/01/30 02:24:29;;;;;;;;;9.00;8.00;;;;;11.74;68.91;103003.03;5101156;27;45278;-91
2022/01/30 02:26:54;;;;;;;;;7.75;7.00;;;;;11.73;68.86;103003.94;5096495;27;45438;-91
2022/01/30 02:29:20;;;;;;;;;9.50;8.00;;;;;11.71;68.97;103009.19;5106708;27;45746;-91
2022/01/30 02:31:46;;;;;;;;;9.25;6.00;;;;;11.72;69.09;103012.72;5099200;27;46448;-85
2022/01/30 02:34:12;;;;;;;;;11.00;9.00;;;;;11.73;69.04;103001.31;5100989;27;46744;-86
2022/01/30 02:36:47;;;;;;;;;8.00;8.00;;;;;11.77;68.99;103000.41;5084532;27;45296;-86
2022/01/30 02:39:14;;;;;;;;;8.50;8.00;;;;;11.79;68.99;102999.53;5102041;27;45450;-86
2022/01/30 02:41:40;;;;;;;;;9.00;7.25;;;;;11.79;68.93;103007.44;5099982;27;47538;-86
2022/01/30 02:46:40;;;;;;;;;8.00;7.25;;;;;11.82;69.08;102999.53;5101632;27;45455;-87
2022/01/30 02:51:51;;;;;;;;;9.50;8.00;;;;;11.86;68.77;103003.03;5102235;27;45245;-87
2022/01/30 02:54:17;;;;;;;;;7.25;7.00;;;;;11.85;68.83;103005.66;5100610;27;45528;-87
2022/01/30 02:56:43;;;;;;;;;13.75;10.75;;;;;11.86;68.85;103013.56;5097396;27;45470;-86
2022/01/30 02:59:10;;;;;;;;;10.75;9.00;;;;;11.86;68.96;103005.66;5094252;27;45352;-87
2022/01/30 03:01:35;;;;;;;;;11.50;10.50;;;;;11.85;68.73;103006.56;5086084;27;47894;-87
2022/01/30 03:04:01;;;;;;;;;10.75;8.75;;;;;11.87;68.94;103009.19;5116287;27;45795;-88
2022/01/30 03:06:27;;;;;;;;;8.75;8.25;;;;;11.87;68.76;102999.53;5100471;27;45274;-88
2022/01/30 03:08:53;;;;;;;;;11.25;9.75;;;;;11.89;68.85;103004.78;5096272;27;45214;-86
2022/01/30 03:11:18;;;;;;;;;11.00;8.00;;;;;11.91;68.55;103008.28;5092258;27;47761;-86
2022/01/30 03:13:44;;;;;;;;;9.75;8.50;;;;;11.95;68.49;103007.38;5100947;27;45264;-87
2022/01/30 03:16:09;;;;;;;;;12.00;9.00;;;;;11.91;68.67;103009.16;5099899;27;45317;-86
2022/01/30 03:18:36;;;;;;;;;12.50;9.25;;;;;11.91;68.51;103014.44;5100520;27;45594;-86
2022/01/30 03:21:03;;;;;;;;;11.25;7.00;;;;;11.89;68.46;103013.56;5100098;27;45495;-87
2022/01/30 03:23:29;;;;;;;;;8.75;5.75;;;;;11.91;68.55;103013.56;5099847;27;45839;-88
2022/01/30 03:25:58;;;;;;;;;14.75;10.25;;;;;11.92;68.34;103018.84;5092881;27;45405;-92
2022/01/30 03:28:24;;;;;;;;;12.75;9.75;;;;;11.92;68.38;103018.84;5100308;27;46487;-91
2022/01/30 03:30:54;;;;;;;;;11.75;9.75;;;;;11.89;67.93;103016.19;5099747;27;46314;-90
2022/01/30 03:33:20;;;;;;;;;14.75;10.25;;;;;11.88;68.28;103019.69;5101218;27;45632;-93
2022/01/30 03:35:45;;;;;;;;;11.50;9.50;;;;;11.89;68.07;103017.94;5099716;27;45204;-92
2022/01/30 03:38:11;;;;;;;;;11.75;10.25;;;;;11.88;68.07;103017.06;5101175;27;45373;-91
2022/01/30 03:40:36;;;;;;;;;10.00;9.75;;;;;11.89;68.02;103025.84;5099758;27;48234;-93
2022/01/30 03:43:02;;;;;;;;;14.00;11.50;;;;;11.89;67.99;103023.22;5100921;27;45236;-92
2022/01/30 03:45:28;;;;;;;;;13.00;11.50;;;;;11.87;67.76;103014.44;5098447;27;45402;-85
2022/01/30 03:47:56;;;;;;;;;12.00;9.25;;;;;11.85;67.68;103022.38;5099123;27;45527;-85
2022/01/30 03:50:22;;;;;;;;;10.50;10.25;;;;;11.87;67.43;103019.72;5100118;27;45520;-84
2022/01/30 03:52:47;;;;;;;;;7.00;7.00;;;;;11.85;65.49;103006.56;5100098;27;45511;-86
2022/01/30 03:55:12;;;;;;;;;12.75;9.50;;;;;11.79;63.74;103025.88;5097261;27;45639;-83
2022/01/30 03:57:38;;;;;;;;;12.50;8.50;;;;;11.69;64.51;103017.09;5092689;27;46380;-83
2022/01/30 04:00:05;;;;;;;;;10.00;9.00;;;;;11.65;64.18;103012.72;5089034;27;45501;-88
2022/01/30 04:02:30;;;;;;;;;10.00;8.25;;;;;11.64;63.41;103017.97;5086616;27;45390;-85
2022/01/30 04:04:55;;;;;;;;;8.00;6.50;;;;;11.62;63.21;103018.00;5094400;27;45437;-83
2022/01/30 04:07:21;;;;;;;;;6.25;5.00;;;;;11.63;62.94;103018.88;5100147;27;45366;-83
2022/01/30 04:09:47;;;;;;;;;7.00;5.00;;;;;11.62;60.61;103017.09;5087534;27;45341;-84
2022/01/30 04:12:13;;;;;;;;;5.00;4.25;;;;;11.59;60.02;103031.16;5100605;27;45236;-84
2022/01/30 04:14:39;;;;;;;;;5.50;3.00;;;;;11.58;59.95;103029.41;5099606;27;45211;-84
2022/01/30 04:17:07;;;;;;;;;4.25;2.75;;;;;11.56;58.59;103028.50;5086199;27;45136;-84
2022/01/30 04:19:32;;;;;;;;;4.00;4.00;;;;;11.51;58.47;103030.28;5098791;27;45548;-84
2022/01/30 04:21:58;;;;;;;;;4.75;2.50;;;;;11.52;59.29;103032.91;5100788;27;45353;-84
2022/01/30 04:24:23;;;;;;;;;6.00;2.00;;;;;11.48;56.81;103039.06;5099521;27;45455;-84
2022/01/30 04:26:49;;;;;;;;;5.50;3.00;;;;;11.42;57.30;103034.66;5084758;27;45431;-85
2022/01/30 04:29:14;;;;;;;;;5.50;2.00;;;;;11.37;56.75;103020.63;5091644;27;45454;-85
2022/01/30 04:31:42;;;;;;;;;4.00;3.25;;;;;11.34;57.44;103036.41;5097894;27;45792;-86
2022/01/30 04:34:07;;;;;;;;;3.25;3.00;;;;;11.34;57.59;103044.31;5094977;27;45392;-85
2022/01/30 04:36:39;;;;;;;;;8.50;4.00;;;;;11.32;57.32;103032.91;5099466;27;45628;-85
2022/01/30 04:40:09;;;;;;;;;6.25;3.00;;;;;11.35;57.92;103032.91;5091906;27;46283;-88
2022/01/30 04:55:48;;;;;;;;;5.00;4.25;;;;;11.27;57.11;103056.59;5096439;27;46080;-85
2022/01/30 05:08:04;;;;;;;;;3.00;3.00;;;;;11.25;57.16;103047.81;5099295;27;45269;-89
2022/01/30 05:10:30;;;;;;;;;3.75;3.75;;;;;11.25;56.22;103050.44;5093616;27;45718;-91
2022/01/30 05:12:58;;;;;;;;;3.50;2.50;;;;;11.29;56.99;103060.09;5092676;27;45384;-92
2022/01/30 05:15:26;;;;;;;;;4.00;4.00;;;;;11.29;56.63;103059.22;5100817;27;45402;-93
2022/01/30 05:17:52;;;;;;;;;9.50;3.25;;;;;11.30;56.40;103050.47;5099072;27;45259;-86
2022/01/30 05:20:17;;;;;;;;;7.00;3.25;;;;;11.31;56.54;103066.25;5096328;27;45911;-85
2022/01/30 05:22:43;;;;;;;;;4.00;3.00;;;;;11.35;56.81;103059.25;5088133;27;45255;-84
2022/01/30 05:25:08;;;;;;;;;6.00;2.25;;;;;11.35;56.89;103060.13;5099432;27;45148;-86
2022/01/30 05:27:34;;;;;;;;;4.00;2.00;;;;;11.32;57.24;103062.75;5101209;27;45218;-86
2022/01/30 05:30:00;;;;;;;;;4.25;4.00;;;;;11.29;55.71;103072.38;5101260;27;45496;-86
2022/01/30 05:32:25;;;;;;;;;2.75;1.00;;;;;11.26;56.44;103073.25;5101828;27;45480;-86
2022/01/30 05:34:51;;;;;;;;;4.75;3.00;;;;;11.24;55.67;103069.75;5103807;27;45442;-89
2022/01/30 05:37:19;;;;;;;;;3.25;3.00;;;;;11.25;56.49;103068.88;5091081;27;47207;-86
2022/01/30 05:39:45;;;;;;;;;2.00;1.75;;;;;11.21;56.19;103075.03;5102467;27;46178;-86
2022/01/30 05:42:12;;;;;;;;;4.75;2.00;;;;;11.22;56.73;103079.41;5102492;27;45214;-86
2022/01/30 05:44:54;;;;;;;;;4.75;2.25;;;;;11.20;56.74;103076.78;5089363;27;45486;-85
2022/01/30 05:47:26;;;;;;;;;5.25;4.50;;;;;11.22;56.84;103082.03;5096602;27;45501;-86
2022/01/30 05:49:51;;;;;;;;;3.75;3.00;;;;;11.23;57.39;103076.78;5102938;27;45334;-87
2022/01/30 05:52:17;;;;;;;;;7.25;2.75;;;;;11.25;56.89;103084.69;5089503;27;45409;-86
2022/01/30 05:54:42;;;;;;;;;6.00;4.00;;;;;11.26;57.36;103086.41;5101021;27;45870;-86
2022/01/30 05:57:08;;;;;;;;;6.25;3.25;;;;;11.25;57.18;103085.56;5098099;27;46337;-88
2022/01/30 05:59:33;;;;;;;;;3.75;2.50;;;;;11.25;57.44;103082.03;5098924;27;47251;-88
2022/01/30 06:01:58;;;;;;;;;5.00;3.00;;;;;11.26;57.95;103086.41;5101283;27;45547;-91
2022/01/30 06:04:24;;;;;;;;;7.50;4.00;;;;;11.24;58.06;103094.31;5090652;27;45441;-92
2022/01/30 06:06:51;;;;;;;;;4.75;2.75;;;;;11.22;58.35;103090.81;5101015;27;45962;-90
2022/01/30 06:11:44;;;;;;;;;11.75;6.00;;;;;11.15;57.73;103091.69;5090795;27;45235;-92
2022/01/30 06:14:10;;;;;;;;;4.25;3.25;;;;;11.12;58.13;103100.44;5098238;27;45413;-93
2022/01/30 06:16:36;;;;;;;;;9.50;3.25;;;;;11.09;57.04;103099.53;5082168;27;46391;-94
2022/01/30 06:19:01;;;;;;;;;7.25;4.75;;;;;11.05;58.20;103103.94;5095081;27;48078;-93
2022/01/30 06:21:28;;;;;;;;;10.25;4.50;;;;;11.04;58.29;103107.41;5100007;27;45332;-93
2022/01/30 06:23:54;;;;;;;;;4.25;3.00;;;;;10.97;57.57;103113.53;5102291;27;45455;-93
2022/01/30 06:26:19;;;;;;;;;4.50;3.50;;;;;10.95;58.11;103121.44;5101947;27;46221;-93
2022/01/30 06:28:44;;;;;;;;;5.00;3.25;;;;;10.94;58.29;103122.28;5095885;27;47054;-91
2022/01/30 06:31:10;;;;;;;;;7.25;5.00;;;;;10.93;58.78;103123.19;5102887;27;45296;-91
2022/01/30 06:33:35;;;;;;;;;7.50;4.00;;;;;10.91;58.84;103120.53;5100747;27;45533;-90
2022/01/30 06:36:01;;;;;;;;;4.75;3.00;;;;;10.90;59.40;103126.69;5088179;27;45280;-89
2022/01/30 06:38:26;;;;;;;;;6.75;5.00;;;;;10.89;58.97;103124.06;5097512;27;48362;-89
2022/01/30 06:40:52;;;;;;;;;6.75;3.50;;;;;10.87;58.61;103123.16;5101086;27;45870;-94
2022/01/30 06:43:17;;;;;;;;;4.75;3.00;;;;;10.83;58.83;103124.00;5088547;27;45265;-93
2022/01/30 06:45:43;;;;;;;;;3.50;3.00;;;;;10.80;58.65;103115.25;5100937;27;45507;-94
2022/01/30 06:48:09;;;;;;;;;4.50;4.50;;;;;10.75;58.27;103122.22;5099898;27;46880;-89
2022/01/30 06:50:34;;;;;;;;;4.25;4.00;;;;;10.70;57.77;103123.94;5102642;27;45576;-88
2022/01/30 06:53:00;;;;;;;;;5.50;2.75;;;;;10.68;58.45;103128.34;5101361;27;45156;-89
2022/01/30 06:55:25;;;;;;;;;6.25;4.75;;;;;10.67;59.04;103131.81;5090339;27;45522;-91
2022/01/30 06:57:51;;;;;;;;;5.25;3.75;;;;;10.64;59.02;103131.81;5097371;27;45384;-91
2022/01/30 07:00:16;;;;;;;;;5.00;3.75;;;;;10.60;58.97;103130.91;5097780;27;46505;-91
2022/01/30 07:02:41;;;;;;;;;3.75;3.75;;;;;10.57;58.93;103130.91;5118590;27;45399;-90
2022/01/30 07:05:07;;;;;;;;;5.25;3.00;;;;;10.54;59.02;103129.13;5099117;27;46077;-91
2022/01/30 07:07:33;;;;;;;;;3.75;2.25;;;;;10.52;59.29;103136.13;5100369;27;47614;-91
2022/01/30 07:09:58;;;;;;;;;4.25;3.00;;;;;10.46;59.29;103118.56;5099231;27;45747;-90
2022/01/30 07:12:24;;;;;;;;;4.50;2.00;;;;;10.45;59.25;103127.28;5089429;27;45796;-86
2022/01/30 07:14:49;;;;;;;;;5.25;2.50;;;;;10.43;59.59;103122.91;5100493;27;45535;-85
2022/01/30 07:17:15;;;;;;;;;3.75;3.75;;;;;10.34;59.48;103119.38;5101188;27;46205;-88
2022/01/30 07:19:40;;;;;;;;;2.50;0.00;;;;;10.33;59.48;103135.09;5102005;27;45294;-88
2022/01/30 07:22:06;;;;;;;;;3.75;3.25;;;;;10.26;59.38;103133.31;5094705;27;45527;-89
2022/01/30 07:24:31;;;;;;;;;3.00;2.50;;;;;10.22;60.13;103140.31;5091836;27;45507;-92
2022/01/30 07:26:57;;;;;;;;;7.00;2.25;;;;;10.18;59.56;103147.28;5101591;27;46126;-93
2022/01/30 07:29:22;;;;;;;;;10.00;5.50;;;;;10.13;59.86;103143.72;5118281;27;45218;-93
2022/01/30 07:31:48;;;;;;;;;4.75;3.75;;;;;10.09;59.61;103148.09;5100305;27;45296;-93
2022/01/30 07:34:13;;;;;;;;;6.25;4.00;;;;;10.03;59.63;103158.53;5099545;27;46883;-93
2022/01/30 07:36:39;;;;;;;;;5.00;4.00;;;;;10.01;59.93;103161.16;5109883;27;47101;-93
2022/01/30 07:39:07;;;;;;;;;7.50;4.00;;;;;9.97;60.54;103172.53;5089476;27;45261;-94
2022/01/30 07:41:33;;;;;;;;;5.50;4.00;;;;;9.95;60.32;103173.38;5101523;27;45513;-88
2022/01/30 07:44:00;;;;;;;;;5.00;4.25;;;;;9.94;60.66;103175.13;5100654;27;45416;-88
2022/01/30 07:46:26;;;;;;;;;5.50;5.00;;;;;9.92;60.22;103171.59;5099910;27;45522;-91
2022/01/30 07:48:52;;;;;;;;;8.75;5.75;;;;;9.87;60.66;103168.94;5091839;27;45161;-85
2022/01/30 07:51:17;;;;;;;;;7.00;4.00;;;;;9.84;59.48;103166.28;5097648;27;45274;-89
2022/01/30 07:53:43;;;;;;;;;5.25;3.75;;;;;9.81;59.30;103171.47;5097168;27;46507;-89
2022/01/30 07:56:08;;;;;;;;;8.00;6.00;;;;;9.82;59.28;103180.25;5093500;27;46317;-92
2022/01/30 07:58:33;;;;;;;;;6.25;5.25;;;;;9.86;59.13;103185.53;5094868;27;45226;-88
2022/01/30 08:00:59;;;;;;;;;5.25;4.50;;;;;9.86;59.50;103188.16;5098695;27;45234;-89
2022/01/30 08:03:24;;;;;;;;;21.00;19.00;;;;;9.90;59.26;103191.72;5097955;27;47165;-88
2022/01/30 08:05:49;;;;;;;;;20.75;16.00;;;;;9.92;58.91;103191.72;5092890;27;47293;-91
2022/01/30 08:08:15;;;;;;;;;13.00;11.75;;;;;9.93;59.40;103182.97;5092752;27;45235;-91
2022/01/30 08:10:40;;;;;;;;;18.00;13.50;;;;;9.95;59.13;103186.50;5090000;27;45205;-92
2022/01/30 08:13:06;;;;;;;;;11.75;10.75;;;;;9.95;59.42;103187.38;5098363;27;45547;-90
2022/01/30 08:15:31;;;;;;;;;10.50;6.75;;;;;10.00;58.95;103200.56;5100514;27;45250;-89
2022/01/30 08:17:57;;;;;;;;;7.00;6.00;;;;;10.00;58.55;103192.69;5099665;27;45390;-87
2022/01/30 08:20:25;;;;;;;;;8.75;6.25;;;;;10.02;58.47;103198.84;5091145;27;45408;-87
2022/01/30 08:22:53;;;;;;;;;10.50;5.00;;;;;10.03;59.00;103192.69;5095844;27;45250;-87
2022/01/30 08:25:22;;;;;;;;;7.00;5.50;;;;;10.09;58.40;103198.03;5095221;27;48088;-87
2022/01/30 08:27:48;;;;;;;;;5.50;5.50;;;;;10.08;58.33;103198.00;5100641;27;45846;-90
2022/01/30 08:30:14;;;;;;;;;4.75;4.00;;;;;10.10;58.32;103194.50;5089066;27;45697;-92
2022/01/30 08:32:40;;;;;;;;;6.25;4.25;;;;;10.16;59.00;103190.19;5096111;27;45920;-92
2022/01/30 08:35:07;;;;;;;;;6.50;4.25;;;;;10.20;58.68;103205.09;5099299;27;46183;-93
2022/01/30 08:37:35;;;;;;;;;6.50;3.50;;;;;10.22;58.95;103195.50;5091722;27;45377;-96
2022/01/30 08:40:02;;;;;;;;;9.75;4.75;;;;;10.24;57.72;103189.38;5117580;27;45377;-96
2022/01/30 08:42:28;;;;;;;;;5.00;4.50;;;;;10.29;58.03;103193.78;5100352;27;47512;-93
2022/01/30 08:44:54;;;;;;;;;6.75;4.00;;;;;10.27;58.89;103191.16;5099315;27;45466;-93
2022/01/30 08:47:19;;;;;;;;;7.00;3.00;;;;;10.26;57.56;103194.66;5099411;27;45457;-94
2022/01/30 08:49:45;;;;;;;;;6.75;4.00;;;;;10.25;57.68;103190.25;5101052;27;45430;-94
2022/01/30 08:52:14;;;;;;;;;3.25;3.25;;;;;10.24;57.92;103197.28;5088790;27;45225;-93
2022/01/30 08:54:40;;;;;;;;;7.00;5.50;;;;;10.23;57.63;103190.25;5097431;27;46366;-93
2022/01/30 08:57:05;;;;;;;;;6.75;5.00;;;;;10.21;57.89;103196.34;5099959;27;45226;-92
2022/01/30 08:59:31;;;;;;;;;6.25;4.00;;;;;10.18;57.60;103196.31;5099310;27;45411;-93
2022/01/30 09:01:56;;;;;;;;;5.50;4.50;;;;;10.19;57.83;103200.72;5090733;27;45862;-93
2022/01/30 09:04:21;;;;;;;;;5.25;4.00;;;;;10.18;57.55;103206.84;5097405;27;47069;-93
2022/01/30 09:06:47;;;;;;;;;3.75;3.75;;;;;10.19;57.83;103198.09;5086880;27;45566;-93
2022/01/30 09:09:12;;;;;;;;;4.00;4.00;;;;;10.20;57.26;103205.09;5087619;27;45301;-94
2022/01/30 09:11:37;;;;;;;;;5.00;3.75;;;;;10.18;57.01;103198.94;5099230;27;46255;-94
2022/01/30 09:14:03;;;;;;;;;4.75;3.75;;;;;10.12;56.82;103200.66;5099951;27;45460;-93
2022/01/30 09:16:28;;;;;;;;;4.50;4.00;;;;;10.12;57.38;103211.16;5096400;27;45580;-93
2022/01/30 09:18:56;;;;;;;;;3.00;3.00;;;;;10.10;57.18;103202.38;5100298;27;45414;-88
2022/01/30 09:21:21;;;;;;;;;4.75;3.00;;;;;10.09;56.95;103199.75;5084938;27;47018;-82
2022/01/30 09:23:47;;;;;;;;;7.25;3.00;;;;;10.09;56.45;103200.66;5098437;27;45421;-82
2022/01/30 09:26:12;;;;;;;;;5.75;4.75;;;;;10.13;56.29;103207.69;5098644;27;45202;-91
2022/01/30 09:28:37;;;;;;;;;5.25;4.75;;;;;10.17;56.64;103207.72;5087893;27;45238;-89
2022/01/30 09:31:03;;;;;;;;;4.00;4.00;;;;;10.17;56.98;103212.97;5103918;27;46070;-90
2022/01/30 09:33:28;;;;;;;;;9.00;4.00;;;;;10.19;56.78;103211.22;5100511;27;46514;-90
2022/01/30 09:35:53;;;;;;;;;5.75;4.00;;;;;10.23;57.04;103210.38;5099227;27;45249;-89
2022/01/30 09:38:19;;;;;;;;;8.75;4.00;;;;;10.31;56.65;103213.09;5099762;27;45251;-90
2022/01/30 09:40:44;;;;;;;;;4.75;3.00;;;;;10.29;55.50;103215.72;5100126;27;45436;-87
2022/01/30 09:43:10;;;;;;;;;6.00;3.75;;;;;10.26;55.79;103207.78;5096112;27;46984;-88
2022/01/30 09:45:36;;;;;;;;;8.25;5.00;;;;;10.27;55.76;103217.44;5090625;27;45902;-83
2022/01/30 09:48:02;;;;;;;;;5.75;4.25;;;;;10.26;55.80;103217.41;5099931;27;45356;-86
2022/01/30 09:50:28;;;;;;;;;8.00;5.00;;;;;10.26;55.05;103215.69;5099957;27;45403;-88
2022/01/30 09:52:53;;;;;;;;;4.75;4.75;;;;;10.24;55.71;103215.69;5099724;27;45461;-88
2022/01/30 09:55:18;;;;;;;;;4.75;3.50;;;;;10.25;56.29;103216.53;5099903;27;45440;-89
2022/01/30 09:57:44;;;;;;;;;5.75;3.50;;;;;10.31;55.72;103221.84;5097025;27;45490;-86
2022/01/30 10:00:11;;;;;;;;;6.25;4.00;;;;;10.29;54.72;103217.44;5098866;27;45348;-86
2022/01/30 10:02:41;;;;;;;;;3.25;3.00;;;;;10.27;55.35;103206.03;5097747;27;47089;-87
2022/01/30 10:05:06;;;;;;;;;4.00;3.00;;;;;10.30;55.66;103209.56;5098050;27;45432;-86
2022/01/30 10:07:55;;;;;;;;;9.00;5.00;;;;;10.38;55.23;103216.63;5099982;27;45376;-88
2022/01/30 10:10:24;;;;;;;;;4.00;3.00;;;;;10.41;54.45;103220.19;5099284;27;45365;-88
2022/01/30 10:13:14;;;;;;;;;6.75;4.75;;;;;10.39;54.40;103218.41;5116607;27;48152;-88
2022/01/30 10:16:02;;;;;;;;;6.25;4.00;;;;;10.38;54.82;103212.25;5088251;27;45416;-88
2022/01/30 10:18:32;;;;;;;;;9.00;4.00;;;;;10.40;53.32;103217.53;5115608;27;45242;-88
2022/01/30 10:20:57;;;;;;;;;6.00;4.00;;;;;10.39;54.36;103213.16;5103010;27;45474;-88
2022/01/30 10:23:34;;;;;;;;;9.25;5.00;;;;;10.40;54.36;103213.16;5108698;27;46882;-88
2022/01/30 10:26:01;;;;;;;;;7.75;5.00;;;;;10.40;54.55;103214.88;5105915;27;45402;-88
2022/01/30 10:28:29;;;;;;;;;5.50;3.75;;;;;10.43;54.11;103214.91;5101762;27;45475;-89
2022/01/30 10:30:59;;;;;;;;;3.00;3.00;;;;;10.48;55.02;103218.47;5091071;27;45442;-88
2022/01/30 10:33:41;;;;;;;;;11.00;5.00;;;;;10.50;55.01;103215.84;5110409;27;45501;-89
2022/01/30 10:36:11;;;;;;;;;7.50;5.25;;;;;10.54;54.80;103218.53;5103719;27;45443;-88
2022/01/30 10:38:47;;;;;;;;;4.00;4.00;;;;;10.56;54.01;103215.94;5102937;27;45207;-89
2022/01/30 10:41:18;;;;;;;;;6.25;3.25;;;;;10.58;54.51;103215.06;5101424;27;47183;-89
2022/01/30 10:43:56;;;;;;;;;5.75;5.50;;;;;10.62;54.49;103210.69;5101564;27;46127;-88
2022/01/30 10:46:24;;;;;;;;;4.75;3.75;;;;;10.66;54.25;103211.63;5091890;27;45191;-88
2022/01/30 10:49:17;;;;;;;;;10.75;4.75;;;;;10.68;53.98;103209.88;5103116;27;45171;-88
2022/01/30 10:51:57;;;;;;;;;5.25;3.75;;;;;10.68;54.13;103212.50;5088890;27;47259;-92
2022/01/30 10:54:26;;;;;;;;;8.25;4.50;;;;;10.69;54.58;103199.34;5100665;27;48500;-88
2022/01/30 10:57:02;;;;;;;;;8.25;4.75;;;;;10.70;55.19;103197.59;5099718;27;45749;-89
2022/01/30 10:59:27;;;;;;;;;10.50;6.75;;;;;10.75;54.26;103203.78;5101054;27;45608;-88
2022/01/30 11:01:53;;;;;;;;;9.00;8.00;;;;;10.75;54.52;103205.53;5100908;27;45415;-89
2022/01/30 11:04:31;;;;;;;;;7.75;6.00;;;;;10.78;55.19;103200.28;5099064;27;45354;-88
2022/01/30 11:07:02;;;;;;;;;7.75;5.25;;;;;10.82;54.84;103201.16;5092526;27;46042;-88
2022/01/30 11:09:49;;;;;;;;;5.00;5.00;;;;;10.84;55.22;103202.09;5092233;27;45480;-86
2022/01/30 11:12:16;;;;;;;;;8.50;6.25;;;;;10.88;55.19;103195.97;5094504;27;46413;-86
2022/01/30 11:17:20;;;;;;;;;7.75;4.75;;;;;10.94;53.95;103190.72;5100268;27;45694;-86
2022/01/30 11:19:48;;;;;;;;;6.25;6.25;;;;;10.95;53.71;103189.84;5101806;27;45410;-88
2022/01/30 11:22:19;;;;;;;;;9.00;5.50;;;;;10.97;53.22;103189.84;5101365;27;45439;-85
2022/01/30 11:24:52;;;;;;;;;6.50;4.00;;;;;10.96;53.70;103190.75;5102770;27;45500;-88
2022/01/30 11:27:20;;;;;;;;;7.75;6.00;;;;;10.93;53.43;103183.72;5099620;27;45470;-88
2022/01/30 11:29:47;;;;;;;;;9.00;7.00;;;;;10.92;53.49;103179.31;5101897;27;45433;-87
2022/01/30 11:32:13;;;;;;;;;9.25;6.00;;;;;10.98;52.88;103179.34;5101906;27;45259;-88
2022/01/30 11:34:41;;;;;;;;;13.00;6.00;;;;;10.96;53.11;103167.06;5100171;27;47168;-88
2022/01/30 11:37:09;;;;;;;;;11.50;7.00;;;;;11.01;53.75;103170.59;5101984;27;45819;-87
2022/01/30 11:39:37;;;;;;;;;13.00;7.50;;;;;11.07;53.52;103172.34;5100431;27;45427;-87
2022/01/30 11:42:25;;;;;;;;;8.25;6.25;;;;;11.12;53.63;103173.25;5101847;27;45424;-84
2022/01/30 11:45:08;;;;;;;;;7.50;6.25;;;;;11.18;53.67;103168.03;5101075;27;45325;-85
2022/01/30 11:47:50;;;;;;;;;11.50;6.25;;;;;11.20;54.13;103152.22;5100830;27;45249;-86
2022/01/30 11:50:18;;;;;;;;;6.75;6.75;;;;;11.25;53.91;103153.13;5101618;27;45180;-86
2022/01/30 11:52:50;;;;;;;;;11.25;6.25;;;;;11.28;53.82;103142.63;5099694;27;45576;-86
2022/01/30 11:55:57;;;;;;;;;11.00;8.00;;;;;11.32;53.83;103138.22;5094144;27;46575;-83
2022/01/30 11:58:56;;;;;;;;;7.25;5.00;;;;;11.34;52.98;103139.09;5101026;27;45863;-86
2022/01/30 12:01:24;;;;;;;;;9.75;8.00;;;;;11.33;51.36;103135.56;5090552;27;45434;-87
2022/01/30 12:03:56;;;;;;;;;15.00;9.00;;;;;11.30;52.84;103114.53;5101360;27;45589;-88
2022/01/30 12:06:25;;;;;;;;;8.50;7.75;;;;;11.32;52.60;103127.69;5101004;27;46327;-88
2022/01/30 12:08:51;;;;;;;;;10.25;8.00;;;;;11.28;51.75;103124.19;5101212;27;45350;-87
2022/01/30 12:11:35;;;;;;;;;7.00;7.00;;;;;11.28;52.18;103125.94;5100098;27;45262;-87
2022/01/30 12:14:11;;;;;;;;;11.50;8.25;;;;;11.27;52.59;103122.41;5100368;27;45457;-87
2022/01/30 12:16:47;;;;;;;;;9.50;6.75;;;;;11.31;52.98;103118.03;5100254;27;46285;-87
2022/01/30 12:19:16;;;;;;;;;15.75;12.00;;;;;11.36;52.56;103114.53;5101029;27;45675;-88
2022/01/30 12:21:43;;;;;;;;;11.00;11.00;;;;;11.42;52.27;103110.16;5101231;27;45320;-88
2022/01/30 12:24:22;;;;;;;;;7.50;5.25;;;;;11.43;52.38;103099.59;5100884;27;45557;-88
2022/01/30 12:26:52;;;;;;;;;11.25;7.75;;;;;11.47;51.73;103101.41;5100500;27;45283;-87
2022/01/30 12:29:37;;;;;;;;;9.50;8.00;;;;;11.50;51.82;103092.63;5099454;27;45725;-88
2022/01/30 12:32:21;;;;;;;;;7.50;6.75;;;;;11.53;51.67;103092.59;5090040;27;45345;-87